sensor_id;sensor_type;location;lat;lon;timestamp;P1;durP1;ratioP1;P2;durP2;ratioP2
74269;SDS011;62754;48.252;11.654;2023-02-13T00:01:21;21.27;;;8.38;;
74269;SDS011;62754;48.252;11.654;2023-02-13T00:03:47;40.22;;;8.98;;
74269;SDS011;62754;48.252;11.654;2023-02-13T00:06:13;27.08;;;9.05;;
74269;SDS011;62754;48.252;11.654;2023-02-13T00:08:38;28.58;;;9.43;;
74269;SDS011;62754;48.252;11.654;2023-02-13T00:11:04;29.10;;;8.93;;
74269;SDS011;62754;48.252;11.654;2023-02-13T00:13:31;35.40;;;9.40;;
74269;SDS011;62754;48.252;11.654;2023-02-13T00:15:59;24.77;;;9.23;;
74269;SDS011;62754;48.252;11.654;2023-02-13T00:18:27;34.88;;;10.05;;
74269;SDS011;62754;48.252;11.654;2023-02-13T00:20:57;33.20;;;10.23;;
74269;SDS011;62754;48.252;11.654;2023-02-13T00:23:24;21.90;;;8.63;;
74269;SDS011;62754;48.252;11.654;2023-02-13T00:25:49;32.10;;;9.25;;
74269;SDS011;62754;48.252;11.654;2023-02-13T00:28:15;27.10;;;9.55;;
74269;SDS011;62754;48.252;11.654;2023-02-13T00:30:41;50.20;;;10.65;;
74269;SDS011;62754;48.252;11.654;2023-02-13T00:33:07;19.00;;;9.35;;
74269;SDS011;62754;48.252;11.654;2023-02-13T00:35:32;21.20;;;9.30;;
74269;SDS011;62754;48.252;11.654;2023-02-13T00:37:58;20.52;;;8.93;;
74269;SDS011;62754;48.252;11.654;2023-02-13T00:40:24;32.25;;;9.43;;
74269;SDS011;62754;48.252;11.654;2023-02-13T00:42:50;40.70;;;8.68;;
74269;SDS011;62754;48.252;11.654;2023-02-13T00:45:15;17.70;;;8.63;;
74269;SDS011;62754;48.252;11.654;2023-02-13T00:47:41;43.20;;;10.18;;
74269;SDS011;62754;48.252;11.654;2023-02-13T00:50:07;29.00;;;8.77;;
74269;SDS011;62754;48.252;11.654;2023-02-13T00:52:33;38.95;;;10.35;;
74269;SDS011;62754;48.252;11.654;2023-02-13T00:54:59;31.90;;;9.38;;
74269;SDS011;62754;48.252;11.654;2023-02-13T00:57:24;18.55;;;8.35;;
74269;SDS011;62754;48.252;11.654;2023-02-13T00:59:50;17.85;;;7.63;;
74269;SDS011;62754;48.252;11.654;2023-02-13T01:02:16;15.30;;;6.90;;
74269;SDS011;62754;48.252;11.654;2023-02-13T01:04:42;19.55;;;8.70;;
74269;SDS011;62754;48.252;11.654;2023-02-13T01:07:07;16.70;;;7.93;;
74269;SDS011;62754;48.252;11.654;2023-02-13T01:09:33;17.50;;;7.97;;
74269;SDS011;62754;48.252;11.654;2023-02-13T01:11:59;25.08;;;8.52;;
74269;SDS011;62754;48.252;11.654;2023-02-13T01:14:25;17.73;;;8.55;;
74269;SDS011;62754;48.252;11.654;2023-02-13T01:16:50;18.45;;;8.40;;
74269;SDS011;62754;48.252;11.654;2023-02-13T01:19:16;38.03;;;10.85;;
74269;SDS011;62754;48.252;11.654;2023-02-13T01:21:42;31.80;;;10.13;;
74269;SDS011;62754;48.252;11.654;2023-02-13T01:24:08;21.35;;;9.05;;
74269;SDS011;62754;48.252;11.654;2023-02-13T01:26:34;24.23;;;8.43;;
74269;SDS011;62754;48.252;11.654;2023-02-13T01:29:00;24.02;;;9.63;;
74269;SDS011;62754;48.252;11.654;2023-02-13T01:31:25;19.63;;;8.13;;
74269;SDS011;62754;48.252;11.654;2023-02-13T01:33:54;18.15;;;7.32;;
74269;SDS011;62754;48.252;11.654;2023-02-13T01:36:20;22.00;;;8.38;;
74269;SDS011;62754;48.252;11.654;2023-02-13T01:38:46;23.08;;;8.00;;
74269;SDS011;62754;48.252;11.654;2023-02-13T01:41:12;24.33;;;7.80;;
74269;SDS011;62754;48.252;11.654;2023-02-13T01:46:21;29.98;;;8.32;;
74269;SDS011;62754;48.252;11.654;2023-02-13T01:48:50;21.40;;;8.95;;
74269;SDS011;62754;48.252;11.654;2023-02-13T01:51:22;19.63;;;8.00;;
74269;SDS011;62754;48.252;11.654;2023-02-13T01:53:58;32.42;;;8.75;;
74269;SDS011;62754;48.252;11.654;2023-02-13T01:56:47;31.38;;;9.15;;
74269;SDS011;62754;48.252;11.654;2023-02-13T01:59:25;25.52;;;9.45;;
74269;SDS011;62754;48.252;11.654;2023-02-13T02:01:57;36.92;;;9.40;;
74269;SDS011;62754;48.252;11.654;2023-02-13T02:04:29;30.58;;;9.55;;
74269;SDS011;62754;48.252;11.654;2023-02-13T02:06:59;24.77;;;7.97;;
74269;SDS011;62754;48.252;11.654;2023-02-13T02:09:31;21.80;;;8.48;;
74269;SDS011;62754;48.252;11.654;2023-02-13T02:12:21;24.77;;;8.60;;
74269;SDS011;62754;48.252;11.654;2023-02-13T02:14:54;18.48;;;8.35;;
74269;SDS011;62754;48.252;11.654;2023-02-13T02:17:23;22.98;;;8.25;;
74269;SDS011;62754;48.252;11.654;2023-02-13T02:22:37;35.00;;;9.32;;
74269;SDS011;62754;48.252;11.654;2023-02-13T02:25:27;24.92;;;8.50;;
74269;SDS011;62754;48.252;11.654;2023-02-13T02:28:29;37.10;;;10.07;;
74269;SDS011;62754;48.252;11.654;2023-02-13T02:39:49;31.95;;;8.93;;
74269;SDS011;62754;48.252;11.654;2023-02-13T02:53:04;57.03;;;9.48;;
74269;SDS011;62754;48.252;11.654;2023-02-13T02:55:50;21.73;;;7.38;;
74269;SDS011;62754;48.252;11.654;2023-02-13T02:58:20;43.70;;;9.40;;
74269;SDS011;62754;48.252;11.654;2023-02-13T03:00:53;71.95;;;10.00;;
74269;SDS011;62754;48.252;11.654;2023-02-13T03:03:22;39.75;;;8.38;;
74269;SDS011;62754;48.252;11.654;2023-02-13T03:05:49;35.80;;;7.50;;
74269;SDS011;62754;48.252;11.654;2023-02-13T03:08:16;46.20;;;8.93;;
74269;SDS011;62754;48.252;11.654;2023-02-13T03:10:42;32.63;;;8.43;;
74269;SDS011;62754;48.252;11.654;2023-02-13T03:13:11;28.27;;;8.32;;
74269;SDS011;62754;48.252;11.654;2023-02-13T03:15:42;28.10;;;8.07;;
74269;SDS011;62754;48.252;11.654;2023-02-13T03:18:09;46.58;;;9.00;;
74269;SDS011;62754;48.252;11.654;2023-02-13T03:29:11;30.27;;;7.72;;
74269;SDS011;62754;48.252;11.654;2023-02-13T03:31:50;44.08;;;8.35;;
74269;SDS011;62754;48.252;11.654;2023-02-13T03:34:20;22.10;;;7.95;;
74269;SDS011;62754;48.252;11.654;2023-02-13T03:36:58;34.60;;;8.25;;
74269;SDS011;62754;48.252;11.654;2023-02-13T03:42:06;49.33;;;9.05;;
74269;SDS011;62754;48.252;11.654;2023-02-13T03:44:51;21.50;;;7.10;;
74269;SDS011;62754;48.252;11.654;2023-02-13T03:47:22;31.63;;;8.50;;
74269;SDS011;62754;48.252;11.654;2023-02-13T03:49:48;42.78;;;9.35;;
74269;SDS011;62754;48.252;11.654;2023-02-13T03:55:23;57.03;;;9.13;;
74269;SDS011;62754;48.252;11.654;2023-02-13T03:57:55;24.85;;;8.00;;
74269;SDS011;62754;48.252;11.654;2023-02-13T04:00:24;48.53;;;8.75;;
74269;SDS011;62754;48.252;11.654;2023-02-13T05:27:38;16.98;;;7.93;;
74269;SDS011;62754;48.252;11.654;2023-02-13T05:30:04;29.50;;;7.75;;
74269;SDS011;62754;48.252;11.654;2023-02-13T05:32:30;28.13;;;7.95;;
74269;SDS011;62754;48.252;11.654;2023-02-13T05:34:56;21.92;;;7.95;;
74269;SDS011;62754;48.252;11.654;2023-02-13T05:37:22;34.33;;;8.13;;
74269;SDS011;62754;48.252;11.654;2023-02-13T05:39:47;31.90;;;10.45;;
74269;SDS011;62754;48.252;11.654;2023-02-13T05:42:13;34.05;;;8.43;;
74269;SDS011;62754;48.252;11.654;2023-02-13T05:44:39;37.92;;;8.70;;
74269;SDS011;62754;48.252;11.654;2023-02-13T05:47:05;33.40;;;9.23;;
74269;SDS011;62754;48.252;11.654;2023-02-13T05:49:30;27.55;;;9.20;;
74269;SDS011;62754;48.252;11.654;2023-02-13T05:51:56;39.63;;;9.13;;
74269;SDS011;62754;48.252;11.654;2023-02-13T05:54:22;22.17;;;8.35;;
74269;SDS011;62754;48.252;11.654;2023-02-13T05:56:48;32.08;;;7.95;;
74269;SDS011;62754;48.252;11.654;2023-02-13T05:59:13;24.40;;;8.52;;
74269;SDS011;62754;48.252;11.654;2023-02-13T06:01:39;36.88;;;9.18;;
74269;SDS011;62754;48.252;11.654;2023-02-13T06:04:05;26.40;;;8.27;;
74269;SDS011;62754;48.252;11.654;2023-02-13T06:06:31;42.85;;;9.52;;
74269;SDS011;62754;48.252;11.654;2023-02-13T06:08:57;18.48;;;7.82;;
74269;SDS011;62754;48.252;11.654;2023-02-13T06:11:22;51.95;;;9.60;;
74269;SDS011;62754;48.252;11.654;2023-02-13T06:13:48;42.25;;;8.98;;
74269;SDS011;62754;48.252;11.654;2023-02-13T06:16:14;31.15;;;8.68;;
74269;SDS011;62754;48.252;11.654;2023-02-13T06:18:40;48.03;;;9.52;;
74269;SDS011;62754;48.252;11.654;2023-02-13T06:21:06;35.22;;;8.82;;
74269;SDS011;62754;48.252;11.654;2023-02-13T06:23:32;29.20;;;8.57;;
74269;SDS011;62754;48.252;11.654;2023-02-13T06:26:03;16.17;;;7.30;;
74269;SDS011;62754;48.252;11.654;2023-02-13T06:28:30;30.23;;;8.77;;
74269;SDS011;62754;48.252;11.654;2023-02-13T06:30:56;29.73;;;8.85;;
74269;SDS011;62754;48.252;11.654;2023-02-13T06:33:22;23.73;;;9.07;;
74269;SDS011;62754;48.252;11.654;2023-02-13T06:35:48;25.00;;;9.60;;
74269;SDS011;62754;48.252;11.654;2023-02-13T06:38:14;17.42;;;8.57;;
74269;SDS011;62754;48.252;11.654;2023-02-13T06:40:40;19.38;;;9.15;;
74269;SDS011;62754;48.252;11.654;2023-02-13T06:43:06;22.02;;;9.50;;
74269;SDS011;62754;48.252;11.654;2023-02-13T06:45:32;26.33;;;8.40;;
74269;SDS011;62754;48.252;11.654;2023-02-13T06:47:57;31.60;;;8.80;;
74269;SDS011;62754;48.252;11.654;2023-02-13T06:50:23;20.92;;;8.43;;
74269;SDS011;62754;48.252;11.654;2023-02-13T06:52:49;20.98;;;8.80;;
74269;SDS011;62754;48.252;11.654;2023-02-13T06:55:16;16.35;;;7.60;;
74269;SDS011;62754;48.252;11.654;2023-02-13T06:57:43;32.35;;;8.82;;
74269;SDS011;62754;48.252;11.654;2023-02-13T07:00:10;22.33;;;9.45;;
74269;SDS011;62754;48.252;11.654;2023-02-13T07:02:37;23.58;;;8.57;;
74269;SDS011;62754;48.252;11.654;2023-02-13T07:05:12;31.70;;;9.82;;
74269;SDS011;62754;48.252;11.654;2023-02-13T07:07:39;33.63;;;10.27;;
74269;SDS011;62754;48.252;11.654;2023-02-13T07:10:07;19.95;;;8.20;;
74269;SDS011;62754;48.252;11.654;2023-02-13T07:12:35;24.73;;;9.43;;
74269;SDS011;62754;48.252;11.654;2023-02-13T07:15:02;32.28;;;8.93;;
74269;SDS011;62754;48.252;11.654;2023-02-13T07:17:31;22.42;;;9.25;;
74269;SDS011;62754;48.252;11.654;2023-02-13T07:19:57;20.90;;;8.80;;
74269;SDS011;62754;48.252;11.654;2023-02-13T07:22:22;18.58;;;7.93;;
74269;SDS011;62754;48.252;11.654;2023-02-13T07:24:48;22.35;;;9.98;;
74269;SDS011;62754;48.252;11.654;2023-02-13T07:27:14;17.08;;;8.60;;
74269;SDS011;62754;48.252;11.654;2023-02-13T07:29:40;16.58;;;8.40;;
74269;SDS011;62754;48.252;11.654;2023-02-13T07:32:05;17.15;;;8.70;;
74269;SDS011;62754;48.252;11.654;2023-02-13T07:34:32;16.20;;;8.30;;
74269;SDS011;62754;48.252;11.654;2023-02-13T07:36:57;19.90;;;8.80;;
74269;SDS011;62754;48.252;11.654;2023-02-13T07:39:23;21.48;;;9.50;;
74269;SDS011;62754;48.252;11.654;2023-02-13T07:41:50;21.13;;;8.73;;
74269;SDS011;62754;48.252;11.654;2023-02-13T07:44:16;19.00;;;8.73;;
74269;SDS011;62754;48.252;11.654;2023-02-13T07:46:41;19.15;;;8.70;;
74269;SDS011;62754;48.252;11.654;2023-02-13T07:49:07;21.92;;;7.90;;
74269;SDS011;62754;48.252;11.654;2023-02-13T07:51:33;19.92;;;8.15;;
74269;SDS011;62754;48.252;11.654;2023-02-13T07:54:00;14.70;;;8.15;;
74269;SDS011;62754;48.252;11.654;2023-02-13T07:56:26;18.33;;;8.40;;
74269;SDS011;62754;48.252;11.654;2023-02-13T07:58:52;17.30;;;8.65;;
74269;SDS011;62754;48.252;11.654;2023-02-13T08:01:18;17.80;;;7.93;;
74269;SDS011;62754;48.252;11.654;2023-02-13T08:03:46;16.75;;;7.93;;
74269;SDS011;62754;48.252;11.654;2023-02-13T08:06:12;22.70;;;7.68;;
74269;SDS011;62754;48.252;11.654;2023-02-13T08:08:38;18.75;;;7.38;;
74269;SDS011;62754;48.252;11.654;2023-02-13T08:11:05;17.15;;;7.68;;
74269;SDS011;62754;48.252;11.654;2023-02-13T08:13:37;13.98;;;6.90;;
74269;SDS011;62754;48.252;11.654;2023-02-13T08:16:03;37.85;;;7.70;;
74269;SDS011;62754;48.252;11.654;2023-02-13T08:18:29;17.98;;;7.47;;
74269;SDS011;62754;48.252;11.654;2023-02-13T08:20:55;24.17;;;8.38;;
74269;SDS011;62754;48.252;11.654;2023-02-13T08:23:20;15.98;;;7.28;;
74269;SDS011;62754;48.252;11.654;2023-02-13T08:25:46;16.77;;;7.85;;
74269;SDS011;62754;48.252;11.654;2023-02-13T08:28:12;26.50;;;7.85;;
74269;SDS011;62754;48.252;11.654;2023-02-13T08:30:40;23.92;;;7.93;;
74269;SDS011;62754;48.252;11.654;2023-02-13T08:33:09;26.00;;;7.95;;
74269;SDS011;62754;48.252;11.654;2023-02-13T08:35:35;15.00;;;6.75;;
74269;SDS011;62754;48.252;11.654;2023-02-13T08:38:04;13.95;;;6.72;;
74269;SDS011;62754;48.252;11.654;2023-02-13T08:40:30;15.07;;;7.18;;
74269;SDS011;62754;48.252;11.654;2023-02-13T08:43:05;12.65;;;6.85;;
74269;SDS011;62754;48.252;11.654;2023-02-13T08:45:31;13.57;;;6.30;;
74269;SDS011;62754;48.252;11.654;2023-02-13T08:47:57;14.70;;;7.20;;
74269;SDS011;62754;48.252;11.654;2023-02-13T08:50:24;16.25;;;7.65;;
74269;SDS011;62754;48.252;11.654;2023-02-13T08:52:51;16.27;;;7.63;;
74269;SDS011;62754;48.252;11.654;2023-02-13T08:55:17;16.00;;;7.65;;
74269;SDS011;62754;48.252;11.654;2023-02-13T08:57:43;15.25;;;8.15;;
74269;SDS011;62754;48.252;11.654;2023-02-13T09:00:09;18.73;;;7.20;;
74269;SDS011;62754;48.252;11.654;2023-02-13T09:02:35;16.52;;;8.52;;
74269;SDS011;62754;48.252;11.654;2023-02-13T09:05:01;15.82;;;8.32;;
74269;SDS011;62754;48.252;11.654;2023-02-13T09:07:27;14.10;;;7.97;;
74269;SDS011;62754;48.252;11.654;2023-02-13T09:09:53;17.33;;;7.15;;
74269;SDS011;62754;48.252;11.654;2023-02-13T09:12:18;15.00;;;7.18;;
74269;SDS011;62754;48.252;11.654;2023-02-13T09:14:44;17.55;;;7.75;;
74269;SDS011;62754;48.252;11.654;2023-02-13T09:17:11;18.52;;;7.40;;
74269;SDS011;62754;48.252;11.654;2023-02-13T09:19:37;15.65;;;7.85;;
74269;SDS011;62754;48.252;11.654;2023-02-13T09:22:03;15.82;;;7.85;;
74269;SDS011;62754;48.252;11.654;2023-02-13T09:24:29;16.00;;;7.15;;
74269;SDS011;62754;48.252;11.654;2023-02-13T09:26:55;15.80;;;7.55;;
74269;SDS011;62754;48.252;11.654;2023-02-13T09:29:21;15.32;;;7.45;;
74269;SDS011;62754;48.252;11.654;2023-02-13T09:31:47;13.95;;;7.13;;
74269;SDS011;62754;48.252;11.654;2023-02-13T09:34:12;15.60;;;8.57;;
74269;SDS011;62754;48.252;11.654;2023-02-13T09:36:38;14.68;;;7.13;;
74269;SDS011;62754;48.252;11.654;2023-02-13T09:39:04;14.82;;;7.28;;
74269;SDS011;62754;48.252;11.654;2023-02-13T09:41:31;13.25;;;6.65;;
74269;SDS011;62754;48.252;11.654;2023-02-13T09:44:05;14.35;;;7.75;;
74269;SDS011;62754;48.252;11.654;2023-02-13T09:46:38;15.57;;;7.78;;
74269;SDS011;62754;48.252;11.654;2023-02-13T09:49:10;13.80;;;6.93;;
74269;SDS011;62754;48.252;11.654;2023-02-13T09:51:40;14.82;;;7.32;;
74269;SDS011;62754;48.252;11.654;2023-02-13T09:54:11;17.33;;;7.68;;
74269;SDS011;62754;48.252;11.654;2023-02-13T09:56:50;13.95;;;6.88;;
74269;SDS011;62754;48.252;11.654;2023-02-13T10:02:16;12.95;;;6.75;;
74269;SDS011;62754;48.252;11.654;2023-02-13T10:04:56;14.80;;;7.78;;
74269;SDS011;62754;48.252;11.654;2023-02-13T10:07:44;15.35;;;7.25;;
74269;SDS011;62754;48.252;11.654;2023-02-13T10:10:29;13.95;;;7.35;;
74269;SDS011;62754;48.252;11.654;2023-02-13T10:18:43;12.10;;;6.60;;
74269;SDS011;62754;48.252;11.654;2023-02-13T10:21:13;12.75;;;6.50;;
74269;SDS011;62754;48.252;11.654;2023-02-13T10:23:49;13.18;;;6.78;;
74269;SDS011;62754;48.252;11.654;2023-02-13T10:26:21;13.73;;;7.80;;
74269;SDS011;62754;48.252;11.654;2023-02-13T10:29:03;13.02;;;7.32;;
74269;SDS011;62754;48.252;11.654;2023-02-13T10:31:35;11.05;;;6.55;;
74269;SDS011;62754;48.252;11.654;2023-02-13T10:34:04;13.23;;;7.00;;
74269;SDS011;62754;48.252;11.654;2023-02-13T10:36:36;12.27;;;6.93;;
74269;SDS011;62754;48.252;11.654;2023-02-13T10:44:42;13.65;;;7.72;;
74269;SDS011;62754;48.252;11.654;2023-02-13T11:04:04;15.10;;;7.97;;
74269;SDS011;62754;48.252;11.654;2023-02-13T11:06:41;15.50;;;8.07;;
74269;SDS011;62754;48.252;11.654;2023-02-13T11:09:10;15.20;;;8.00;;
74269;SDS011;62754;48.252;11.654;2023-02-13T11:11:37;14.35;;;7.05;;
74269;SDS011;62754;48.252;11.654;2023-02-13T11:14:08;14.02;;;7.70;;
74269;SDS011;62754;48.252;11.654;2023-02-13T11:16:38;15.27;;;8.18;;
74269;SDS011;62754;48.252;11.654;2023-02-13T11:19:13;14.70;;;7.68;;
74269;SDS011;62754;48.252;11.654;2023-02-13T11:21:41;15.88;;;8.27;;
74269;SDS011;62754;48.252;11.654;2023-02-13T11:24:15;18.63;;;8.50;;
74269;SDS011;62754;48.252;11.654;2023-02-13T11:26:51;15.90;;;8.38;;
74269;SDS011;62754;48.252;11.654;2023-02-13T11:29:26;15.43;;;8.10;;
74269;SDS011;62754;48.252;11.654;2023-02-13T11:32:03;15.77;;;8.68;;
74269;SDS011;62754;48.252;11.654;2023-02-13T11:34:42;16.55;;;8.40;;
74269;SDS011;62754;48.252;11.654;2023-02-13T11:39:34;14.05;;;7.53;;
74269;SDS011;62754;48.252;11.654;2023-02-13T11:42:03;13.88;;;6.93;;
74269;SDS011;62754;48.252;11.654;2023-02-13T11:44:41;12.32;;;7.75;;
74269;SDS011;62754;48.252;11.654;2023-02-13T11:47:13;13.40;;;7.68;;
74269;SDS011;62754;48.252;11.654;2023-02-13T11:49:39;12.45;;;7.03;;
74269;SDS011;62754;48.252;11.654;2023-02-13T11:52:43;14.13;;;7.65;;
74269;SDS011;62754;48.252;11.654;2023-02-13T11:55:23;14.07;;;8.15;;
74269;SDS011;62754;48.252;11.654;2023-02-13T11:57:59;13.90;;;7.68;;
74269;SDS011;62754;48.252;11.654;2023-02-13T12:00:29;13.73;;;8.10;;
74269;SDS011;62754;48.252;11.654;2023-02-13T12:08:50;13.30;;;8.00;;
74269;SDS011;62754;48.252;11.654;2023-02-13T12:14:08;15.25;;;8.35;;
74269;SDS011;62754;48.252;11.654;2023-02-13T12:16:42;14.70;;;8.38;;
74269;SDS011;62754;48.252;11.654;2023-02-13T12:19:12;15.05;;;8.32;;
74269;SDS011;62754;48.252;11.654;2023-02-13T12:24:22;13.57;;;7.88;;
74269;SDS011;62754;48.252;11.654;2023-02-13T12:35:26;14.68;;;8.50;;
74269;SDS011;62754;48.252;11.654;2023-02-13T12:46:10;14.30;;;8.77;;
74269;SDS011;62754;48.252;11.654;2023-02-13T12:48:55;15.13;;;8.52;;
74269;SDS011;62754;48.252;11.654;2023-02-13T12:57:04;13.68;;;7.95;;
74269;SDS011;62754;48.252;11.654;2023-02-13T13:02:23;16.55;;;8.95;;
74269;SDS011;62754;48.252;11.654;2023-02-13T13:05:23;15.30;;;8.68;;
74269;SDS011;62754;48.252;11.654;2023-02-13T13:08:15;15.23;;;8.70;;
74269;SDS011;62754;48.252;11.654;2023-02-13T13:13:59;13.88;;;7.85;;
74269;SDS011;62754;48.252;11.654;2023-02-13T13:19:10;14.43;;;9.05;;
74269;SDS011;62754;48.252;11.654;2023-02-13T13:21:59;15.10;;;8.15;;
74269;SDS011;62754;48.252;11.654;2023-02-13T13:24:37;15.25;;;9.23;;
74269;SDS011;62754;48.252;11.654;2023-02-13T13:27:26;14.68;;;8.65;;
74269;SDS011;62754;48.252;11.654;2023-02-13T13:29:56;16.73;;;9.50;;
74269;SDS011;62754;48.252;11.654;2023-02-13T13:32:25;14.55;;;8.60;;
74269;SDS011;62754;48.252;11.654;2023-02-13T13:34:54;15.80;;;9.32;;
74269;SDS011;62754;48.252;11.654;2023-02-13T13:37:25;12.93;;;8.20;;
74269;SDS011;62754;48.252;11.654;2023-02-13T13:45:04;12.77;;;7.80;;
74269;SDS011;62754;48.252;11.654;2023-02-13T13:50:38;15.05;;;8.25;;
74269;SDS011;62754;48.252;11.654;2023-02-13T13:53:14;11.80;;;7.38;;
74269;SDS011;62754;48.252;11.654;2023-02-13T14:00:48;12.43;;;7.80;;
74269;SDS011;62754;48.252;11.654;2023-02-13T14:03:43;12.63;;;7.50;;
74269;SDS011;62754;48.252;11.654;2023-02-13T14:06:27;12.45;;;7.57;;
74269;SDS011;62754;48.252;11.654;2023-02-13T14:11:51;13.18;;;7.68;;
74269;SDS011;62754;48.252;11.654;2023-02-13T14:16:52;14.05;;;8.38;;
74269;SDS011;62754;48.252;11.654;2023-02-13T14:19:32;13.38;;;7.88;;
74269;SDS011;62754;48.252;11.654;2023-02-13T14:25:02;13.57;;;8.60;;
74269;SDS011;62754;48.252;11.654;2023-02-13T14:27:31;13.90;;;8.18;;
74269;SDS011;62754;48.252;11.654;2023-02-13T14:30:00;12.82;;;7.55;;
74269;SDS011;62754;48.252;11.654;2023-02-13T14:32:33;13.55;;;8.02;;
74269;SDS011;62754;48.252;11.654;2023-02-13T14:37:46;13.82;;;8.27;;
74269;SDS011;62754;48.252;11.654;2023-02-13T14:42:41;14.40;;;8.00;;
74269;SDS011;62754;48.252;11.654;2023-02-13T14:45:13;15.40;;;8.82;;
74269;SDS011;62754;48.252;11.654;2023-02-13T14:47:48;13.85;;;8.38;;
74269;SDS011;62754;48.252;11.654;2023-02-13T14:53:30;16.85;;;8.73;;
74269;SDS011;62754;48.252;11.654;2023-02-13T14:56:13;13.40;;;8.50;;
74269;SDS011;62754;48.252;11.654;2023-02-13T14:58:47;15.27;;;8.77;;
74269;SDS011;62754;48.252;11.654;2023-02-13T15:01:25;13.88;;;8.38;;
74269;SDS011;62754;48.252;11.654;2023-02-13T15:04:04;15.60;;;8.43;;
74269;SDS011;62754;48.252;11.654;2023-02-13T15:06:38;14.98;;;8.55;;
74269;SDS011;62754;48.252;11.654;2023-02-13T15:09:13;13.52;;;8.30;;
74269;SDS011;62754;48.252;11.654;2023-02-13T15:11:44;14.43;;;8.57;;
74269;SDS011;62754;48.252;11.654;2023-02-13T15:17:21;15.02;;;8.88;;
74269;SDS011;62754;48.252;11.654;2023-02-13T15:19:51;15.52;;;9.00;;
74269;SDS011;62754;48.252;11.654;2023-02-13T15:22:21;14.20;;;8.55;;
74269;SDS011;62754;48.252;11.654;2023-02-13T15:24:55;14.43;;;8.48;;
74269;SDS011;62754;48.252;11.654;2023-02-13T15:29:57;14.23;;;8.20;;
74269;SDS011;62754;48.252;11.654;2023-02-13T15:32:42;15.07;;;8.55;;
74269;SDS011;62754;48.252;11.654;2023-02-13T15:35:41;15.00;;;8.95;;
74269;SDS011;62754;48.252;11.654;2023-02-13T15:38:16;17.75;;;9.25;;
74269;SDS011;62754;48.252;11.654;2023-02-13T15:41:03;15.18;;;8.70;;
74269;SDS011;62754;48.252;11.654;2023-02-13T15:43:34;15.27;;;9.48;;
74269;SDS011;62754;48.252;11.654;2023-02-13T15:46:20;17.83;;;9.65;;
74269;SDS011;62754;48.252;11.654;2023-02-13T15:48:54;15.98;;;9.13;;
74269;SDS011;62754;48.252;11.654;2023-02-13T15:51:24;17.92;;;10.10;;
74269;SDS011;62754;48.252;11.654;2023-02-13T15:53:52;15.32;;;9.43;;
74269;SDS011;62754;48.252;11.654;2023-02-13T15:56:22;15.07;;;9.07;;
74269;SDS011;62754;48.252;11.654;2023-02-13T15:58:49;14.73;;;8.95;;
74269;SDS011;62754;48.252;11.654;2023-02-13T16:01:16;17.55;;;9.23;;
74269;SDS011;62754;48.252;11.654;2023-02-13T16:03:43;14.77;;;9.00;;
74269;SDS011;62754;48.252;11.654;2023-02-13T16:06:13;15.38;;;9.32;;
74269;SDS011;62754;48.252;11.654;2023-02-13T16:08:44;18.90;;;9.32;;
74269;SDS011;62754;48.252;11.654;2023-02-13T16:16:42;15.77;;;8.65;;
74269;SDS011;62754;48.252;11.654;2023-02-13T16:21:51;15.40;;;9.43;;
74269;SDS011;62754;48.252;11.654;2023-02-13T16:24:18;14.40;;;9.00;;
74269;SDS011;62754;48.252;11.654;2023-02-13T16:26:45;16.35;;;9.43;;
74269;SDS011;62754;48.252;11.654;2023-02-13T16:29:17;16.38;;;9.35;;
74269;SDS011;62754;48.252;11.654;2023-02-13T16:31:45;15.43;;;8.93;;
74269;SDS011;62754;48.252;11.654;2023-02-13T16:34:13;14.93;;;9.15;;
74269;SDS011;62754;48.252;11.654;2023-02-13T16:36:45;17.75;;;9.35;;
74269;SDS011;62754;48.252;11.654;2023-02-13T16:39:18;17.33;;;9.27;;
74269;SDS011;62754;48.252;11.654;2023-02-13T16:41:51;17.25;;;9.18;;
74269;SDS011;62754;48.252;11.654;2023-02-13T16:44:27;17.05;;;9.55;;
74269;SDS011;62754;48.252;11.654;2023-02-13T16:46:56;17.50;;;10.05;;
74269;SDS011;62754;48.252;11.654;2023-02-13T16:49:25;16.33;;;9.18;;
74269;SDS011;62754;48.252;11.654;2023-02-13T16:52:26;15.52;;;9.07;;
74269;SDS011;62754;48.252;11.654;2023-02-13T16:54:59;17.42;;;9.60;;
74269;SDS011;62754;48.252;11.654;2023-02-13T16:57:30;16.50;;;9.35;;
74269;SDS011;62754;48.252;11.654;2023-02-13T17:02:32;15.60;;;8.95;;
74269;SDS011;62754;48.252;11.654;2023-02-13T17:07:37;15.68;;;8.90;;
74269;SDS011;62754;48.252;11.654;2023-02-13T17:10:16;17.27;;;9.02;;
74269;SDS011;62754;48.252;11.654;2023-02-13T17:12:42;17.50;;;9.63;;
74269;SDS011;62754;48.252;11.654;2023-02-13T17:15:16;15.75;;;8.65;;
74269;SDS011;62754;48.252;11.654;2023-02-13T17:17:44;17.23;;;9.32;;
74269;SDS011;62754;48.252;11.654;2023-02-13T17:20:17;16.92;;;9.52;;
74269;SDS011;62754;48.252;11.654;2023-02-13T17:22:46;17.52;;;9.95;;
74269;SDS011;62754;48.252;11.654;2023-02-13T17:25:36;17.25;;;10.23;;
74269;SDS011;62754;48.252;11.654;2023-02-13T17:28:12;18.77;;;11.35;;
74269;SDS011;62754;48.252;11.654;2023-02-13T17:30:42;17.92;;;10.27;;
74269;SDS011;62754;48.252;11.654;2023-02-13T17:33:10;16.88;;;9.32;;
74269;SDS011;62754;48.252;11.654;2023-02-13T17:35:37;19.23;;;10.63;;
74269;SDS011;62754;48.252;11.654;2023-02-13T17:38:03;21.05;;;11.45;;
74269;SDS011;62754;48.252;11.654;2023-02-13T17:40:28;21.15;;;11.68;;
74269;SDS011;62754;48.252;11.654;2023-02-13T17:42:54;19.75;;;11.82;;
74269;SDS011;62754;48.252;11.654;2023-02-13T17:47:48;19.40;;;11.05;;
74269;SDS011;62754;48.252;11.654;2023-02-13T17:50:15;21.45;;;11.05;;
74269;SDS011;62754;48.252;11.654;2023-02-13T17:52:41;23.63;;;12.32;;
74269;SDS011;62754;48.252;11.654;2023-02-13T17:55:14;22.50;;;11.60;;
74269;SDS011;62754;48.252;11.654;2023-02-13T17:57:40;25.20;;;12.13;;
74269;SDS011;62754;48.252;11.654;2023-02-13T18:00:06;22.58;;;12.52;;
74269;SDS011;62754;48.252;11.654;2023-02-13T18:04:59;25.48;;;13.00;;
74269;SDS011;62754;48.252;11.654;2023-02-13T18:07:25;24.02;;;12.52;;
74269;SDS011;62754;48.252;11.654;2023-02-13T18:09:51;25.30;;;12.60;;
74269;SDS011;62754;48.252;11.654;2023-02-13T18:12:21;23.55;;;12.63;;
74269;SDS011;62754;48.252;11.654;2023-02-13T18:14:48;22.25;;;12.73;;
74269;SDS011;62754;48.252;11.654;2023-02-13T18:17:17;23.50;;;12.00;;
74269;SDS011;62754;48.252;11.654;2023-02-13T18:19:44;25.85;;;13.60;;
74269;SDS011;62754;48.252;11.654;2023-02-13T18:22:13;21.77;;;13.25;;
74269;SDS011;62754;48.252;11.654;2023-02-13T18:24:39;22.45;;;12.70;;
74269;SDS011;62754;48.252;11.654;2023-02-13T18:27:06;22.92;;;12.80;;
74269;SDS011;62754;48.252;11.654;2023-02-13T18:29:33;28.17;;;14.23;;
74269;SDS011;62754;48.252;11.654;2023-02-13T18:31:59;23.98;;;13.02;;
74269;SDS011;62754;48.252;11.654;2023-02-13T18:34:25;24.10;;;13.98;;
74269;SDS011;62754;48.252;11.654;2023-02-13T18:36:51;21.35;;;11.57;;
74269;SDS011;62754;48.252;11.654;2023-02-13T18:39:17;23.90;;;13.35;;
74269;SDS011;62754;48.252;11.654;2023-02-13T18:41:43;24.42;;;12.25;;
74269;SDS011;62754;48.252;11.654;2023-02-13T18:44:09;23.63;;;13.00;;
74269;SDS011;62754;48.252;11.654;2023-02-13T18:46:35;24.20;;;13.02;;
74269;SDS011;62754;48.252;11.654;2023-02-13T18:49:00;24.90;;;13.32;;
74269;SDS011;62754;48.252;11.654;2023-02-13T18:51:26;23.88;;;12.93;;